createdAt,value
2019-01-02T00:00:38.604Z,3.18
2019-01-02T00:03:11.184Z,3.16
2019-01-02T00:05:44.224Z,3.20
2019-01-02T00:08:16.868Z,3.22
2019-01-02T00:10:49.070Z,3.25
2019-01-02T00:13:21.809Z,3.25
2019-01-02T00:15:54.551Z,3.28
2019-01-02T00:18:27.986Z,3.29
2019-01-02T00:21:00.690Z,3.25
2019-01-02T00:23:33.617Z,3.29
2019-01-02T00:26:06.210Z,3.26
2019-01-02T00:28:39.046Z,3.31
2019-01-02T00:31:12.055Z,3.31
2019-01-02T00:33:44.670Z,3.30
2019-01-02T00:36:17.581Z,3.35
2019-01-02T00:38:50.166Z,3.37
2019-01-02T00:41:23.131Z,3.33
2019-01-02T00:43:55.685Z,3.30
2019-01-02T00:46:28.487Z,3.33
2019-01-02T00:49:01.070Z,3.34
2019-01-02T00:51:33.726Z,3.31
2019-01-02T00:54:06.598Z,3.29
2019-01-02T00:56:39.108Z,3.30
2019-01-02T00:59:11.904Z,3.31
2019-01-02T01:01:44.529Z,3.31
2019-01-02T01:04:17.626Z,3.18
2019-01-02T01:06:50.159Z,3.24
2019-01-02T01:09:23.172Z,3.24
2019-01-02T01:11:55.745Z,3.28
2019-01-02T01:14:28.793Z,3.29
2019-01-02T01:17:01.372Z,3.27
2019-01-02T01:19:33.955Z,3.31
2019-01-02T01:22:06.587Z,3.30
2019-01-02T01:24:39.125Z,3.37
2019-01-02T01:27:11.952Z,3.34
2019-01-02T01:29:44.561Z,3.33
2019-01-02T01:32:17.159Z,3.31
2019-01-02T01:34:50.300Z,3.31
2019-01-02T01:37:22.923Z,3.29
2019-01-02T01:39:55.449Z,3.27
2019-01-02T01:42:28.290Z,3.27
2019-01-02T01:45:00.941Z,3.25
2019-01-02T01:47:33.523Z,3.27
2019-01-02T01:50:07.552Z,3.27
2019-01-02T01:52:40.162Z,3.26
2019-01-02T01:55:12.821Z,3.25
2019-01-02T01:57:45.947Z,3.27
2019-01-02T02:00:21.357Z,3.27
2019-01-02T02:02:53.946Z,3.24
2019-01-02T02:05:26.849Z,3.21
2019-01-02T02:07:59.390Z,3.21
2019-01-02T02:10:34.180Z,3.17
2019-01-02T02:13:07.310Z,3.08
2019-01-02T02:15:39.988Z,3.01
2019-01-02T02:18:12.625Z,2.96
2019-01-02T02:20:45.645Z,2.93
2019-01-02T02:23:18.276Z,2.92
2019-01-02T02:25:50.905Z,2.91
2019-01-02T02:28:23.477Z,2.94
2019-01-02T02:30:57.480Z,2.95
2019-01-02T02:33:30.243Z,2.92
2019-01-02T02:36:03.081Z,2.96
2019-01-02T02:38:35.949Z,2.97
2019-01-02T02:41:09.289Z,2.95
2019-01-02T02:43:42.288Z,2.94
2019-01-02T02:46:14.916Z,2.94
2019-01-02T02:48:47.540Z,2.96
2019-01-02T02:51:20.890Z,2.95
2019-01-02T02:53:54.206Z,3.06
2019-01-02T02:56:27.105Z,3.06
2019-01-02T02:58:59.856Z,3.00
2019-01-02T03:01:32.716Z,2.91
2019-01-02T03:04:05.878Z,2.90
2019-01-02T03:06:38.805Z,2.78
2019-01-02T03:09:12.381Z,2.69
2019-01-02T03:11:45.007Z,2.69
2019-01-02T03:14:17.636Z,2.62
2019-01-02T03:16:50.834Z,2.65
2019-01-02T03:19:24.022Z,2.67
2019-01-02T03:21:57.049Z,2.57
2019-01-02T03:24:30.015Z,2.57
2019-01-02T03:27:02.794Z,2.48
2019-01-02T03:29:35.454Z,2.56
2019-01-02T03:32:08.449Z,2.71
2019-01-02T03:34:41.206Z,2.76
2019-01-02T03:37:13.756Z,2.74
2019-01-02T03:39:46.319Z,2.62
2019-01-02T03:42:18.901Z,2.66
2019-01-02T03:44:51.473Z,2.67
2019-01-02T03:47:24.025Z,2.66
2019-01-02T03:49:56.640Z,2.71
2019-01-02T03:52:29.284Z,2.76
2019-01-02T03:55:02.223Z,2.71
2019-01-02T03:57:34.771Z,2.73
2019-01-02T04:00:10.773Z,2.73
2019-01-02T04:02:43.458Z,2.76
2019-01-02T04:05:19.178Z,2.82
2019-01-02T04:07:56.927Z,2.83
2019-01-02T04:10:29.732Z,2.81
2019-01-02T04:13:02.352Z,2.85
2019-01-02T04:15:35.324Z,2.83
2019-01-02T04:18:11.369Z,2.86
2019-01-02T04:20:44.065Z,2.82
2019-01-02T04:23:16.723Z,2.75
2019-01-02T04:25:49.416Z,2.75
2019-01-02T04:28:21.998Z,2.69
2019-01-02T04:30:54.548Z,2.58
2019-01-02T04:33:27.232Z,2.17
2019-01-02T04:35:59.795Z,1.81
2019-01-02T04:38:32.398Z,1.53
2019-01-02T04:41:04.968Z,1.40
2019-01-02T04:43:37.636Z,1.04
2019-01-02T04:46:10.269Z,0.87
2019-01-02T04:48:42.865Z,0.82
2019-01-02T04:51:15.561Z,0.78
2019-01-02T04:53:48.109Z,0.76
2019-01-02T04:56:20.697Z,0.73
2019-01-02T04:58:53.284Z,0.71
2019-01-02T05:01:25.931Z,0.76
2019-01-02T05:03:58.624Z,0.76
2019-01-02T05:06:36.422Z,0.80
2019-01-02T05:09:10.123Z,0.81
2019-01-02T05:11:42.628Z,0.87
2019-01-02T05:14:15.323Z,0.94
2019-01-02T05:16:47.927Z,1.00
2019-01-02T05:19:20.522Z,1.08
2019-01-02T05:21:53.036Z,1.06
2019-01-02T05:24:25.678Z,1.15
2019-01-02T05:26:58.405Z,1.13
2019-01-02T05:29:31.047Z,1.17
2019-01-02T05:32:03.628Z,1.20
2019-01-02T05:34:36.321Z,1.21
2019-01-02T05:37:10.243Z,1.23
2019-01-02T05:39:44.356Z,1.17
2019-01-02T05:42:16.951Z,1.07
2019-01-02T05:44:49.559Z,1.09
2019-01-02T05:47:22.179Z,1.04
2019-01-02T05:49:54.843Z,1.03
2019-01-02T05:52:27.424Z,1.11
2019-01-02T05:55:00.281Z,1.17
2019-01-02T05:57:33.079Z,1.15
2019-01-02T06:00:06.364Z,1.08
2019-01-02T06:02:39.070Z,1.01
2019-01-02T06:05:12.115Z,1.03
2019-01-02T06:07:43.864Z,1.00
2019-01-02T06:10:17.414Z,1.02
2019-01-02T06:12:49.973Z,0.97
2019-01-02T06:15:22.167Z,0.94
2019-01-02T06:17:54.772Z,0.87
2019-01-02T06:20:27.331Z,0.88
2019-01-02T06:22:59.980Z,0.92
2019-01-02T06:25:32.567Z,1.01
2019-01-02T06:28:05.104Z,0.93
2019-01-02T06:30:37.782Z,0.89
2019-01-02T06:33:10.423Z,0.92
2019-01-02T06:35:43.057Z,0.91
2019-01-02T06:38:15.644Z,0.87
2019-01-02T06:40:48.290Z,0.90
2019-01-02T06:43:21.001Z,0.88
2019-01-02T06:45:53.531Z,0.96
2019-01-02T06:48:25.653Z,0.94
2019-01-02T06:50:58.287Z,0.95
2019-01-02T06:53:34.125Z,0.92
2019-01-02T06:56:06.835Z,0.98
2019-01-02T06:58:39.404Z,0.96
2019-01-02T07:01:13.067Z,0.91
2019-01-02T07:03:45.599Z,0.84
2019-01-02T07:06:18.198Z,0.90
2019-01-02T07:08:50.790Z,0.87
2019-01-02T07:11:23.371Z,0.93
2019-01-02T07:13:55.937Z,0.93
2019-01-02T07:16:28.531Z,0.91
2019-01-02T07:19:01.199Z,0.87
2019-01-02T07:21:33.845Z,0.83
2019-01-02T07:24:06.618Z,0.85
2019-01-02T07:26:39.257Z,0.77
2019-01-02T07:29:11.875Z,0.77
2019-01-02T07:31:44.513Z,0.91
2019-01-02T07:35:22.156Z,0.92
2019-01-02T07:38:49.281Z,0.87
2019-01-02T07:42:28.203Z,0.84
2019-01-02T07:45:50.681Z,0.82
2019-01-02T07:49:14.901Z,0.73
2019-01-02T07:53:11.764Z,0.79
2019-01-02T07:56:56.086Z,0.82
2019-01-02T08:00:24.286Z,0.87
2019-01-02T08:04:04.007Z,1.03
2019-01-02T08:07:29.875Z,0.91
2019-01-02T08:10:51.911Z,1.03
2019-01-02T08:14:00.830Z,1.30
2019-01-02T08:17:29.691Z,1.53
2019-01-02T08:20:55.823Z,1.81
2019-01-02T08:24:18.020Z,1.83
2019-01-02T08:27:09.509Z,1.81
2019-01-02T08:30:04.000Z,1.62
2019-01-02T08:40:29.406Z,3.71
2019-01-02T08:43:46.020Z,5.13
2019-01-02T08:46:59.093Z,6.49
2019-01-02T08:50:20.843Z,7.42
2019-01-02T08:53:44.189Z,7.46
2019-01-02T08:57:02.962Z,6.38
2019-01-02T09:00:43.271Z,6.74
2019-01-02T09:04:13.826Z,6.79
2019-01-02T09:07:51.427Z,7.78
2019-01-02T09:11:22.788Z,8.56
2019-01-02T09:15:10.134Z,8.28
2019-01-02T09:19:10.201Z,7.83
2019-01-02T09:22:54.898Z,6.00
2019-01-02T09:26:05.332Z,5.89
2019-01-02T09:29:19.096Z,5.36
2019-01-02T09:33:01.775Z,4.39
2019-01-02T09:36:14.804Z,4.08
2019-01-02T09:39:44.438Z,4.22
2019-01-02T09:43:24.619Z,3.79
2019-01-02T09:47:10.710Z,3.36
2019-01-02T09:50:23.370Z,3.13
2019-01-02T09:54:03.772Z,3.08
2019-01-02T09:57:32.912Z,2.87
2019-01-02T10:01:05.177Z,2.41
2019-01-02T10:04:39.921Z,2.72
2019-01-02T10:08:10.163Z,2.86
2019-01-02T10:11:55.271Z,2.90
2019-01-02T10:15:39.610Z,2.93
2019-01-02T10:19:36.670Z,2.98
2019-01-02T10:22:58.293Z,2.76
2019-01-02T10:26:28.980Z,2.72
2019-01-02T10:29:37.582Z,2.67
2019-01-02T10:33:04.807Z,2.74
2019-01-02T10:36:38.009Z,2.69
2019-01-02T10:40:02.389Z,2.76
2019-01-02T10:43:26.432Z,2.63
2019-01-02T10:46:19.818Z,2.61
2019-01-02T10:49:46.203Z,2.74
2019-01-02T10:53:06.457Z,2.82
2019-01-02T10:56:27.935Z,2.90
2019-01-02T10:59:53.144Z,2.85
2019-01-02T11:03:16.969Z,2.96
2019-01-02T11:06:45.487Z,2.87
2019-01-02T11:10:26.573Z,2.83
2019-01-02T11:14:04.820Z,2.70
2019-01-02T11:17:38.875Z,2.54
2019-01-02T11:21:03.145Z,2.51
2019-01-02T11:24:41.964Z,2.34
2019-01-02T11:28:22.388Z,2.37
2019-01-02T11:32:22.146Z,2.41
2019-01-02T11:35:35.877Z,2.44
2019-01-02T11:38:45.132Z,2.38
2019-01-02T11:41:55.168Z,2.43
2019-01-02T11:45:05.867Z,2.64
2019-01-02T11:47:38.418Z,2.84
2019-01-02T11:50:16.693Z,2.84
2019-01-02T11:52:49.338Z,2.98
2019-01-02T11:55:26.049Z,2.90
2019-01-02T11:57:58.705Z,2.77
2019-01-02T12:00:37.787Z,2.65
2019-01-02T12:03:10.459Z,2.59
2019-01-02T12:05:43.235Z,2.54
2019-01-02T12:08:15.893Z,2.54
2019-01-02T12:10:48.602Z,2.64
2019-01-02T12:13:21.219Z,2.83
2019-01-02T12:15:53.826Z,2.85
2019-01-02T12:18:26.433Z,2.75
2019-01-02T12:20:58.974Z,2.72
2019-01-02T12:23:31.559Z,2.62
2019-01-02T12:26:04.094Z,2.67
2019-01-02T12:28:36.745Z,2.74
2019-01-02T12:31:09.360Z,2.80
2019-01-02T12:33:41.931Z,2.82
2019-01-02T12:36:14.659Z,2.88
2019-01-02T12:38:47.285Z,2.88
2019-01-02T12:41:19.930Z,2.88
2019-01-02T12:43:52.585Z,2.93
2019-01-02T12:46:25.525Z,2.93
2019-01-02T12:48:58.341Z,2.88
2019-01-02T12:51:33.006Z,2.85
2019-01-02T12:54:05.661Z,2.79
2019-01-02T12:56:38.246Z,2.58
2019-01-02T12:59:15.020Z,2.63
2019-01-02T13:02:50.163Z,2.59
2019-01-02T13:05:41.708Z,2.53
2019-01-02T13:09:12.130Z,2.41
2019-01-02T13:12:09.543Z,2.38
2019-01-02T13:15:33.894Z,2.49
2019-01-02T13:19:02.712Z,2.60
2019-01-02T13:22:06.846Z,2.75
2019-01-02T13:25:05.153Z,2.85
2019-01-02T13:28:34.098Z,2.81
2019-01-02T13:32:09.418Z,2.79
2019-01-02T13:35:51.262Z,2.51
2019-01-02T13:38:53.534Z,2.52
2019-01-02T13:41:57.167Z,2.40
2019-01-02T13:45:04.942Z,2.36
2019-01-02T13:49:00.022Z,2.32
2019-01-02T13:51:40.187Z,2.30
2019-01-02T13:54:12.908Z,2.42
2019-01-02T13:56:45.458Z,2.64
2019-01-02T13:59:18.046Z,2.70
2019-01-02T14:01:50.639Z,2.80
2019-01-02T14:04:23.188Z,2.85
2019-01-02T14:06:55.757Z,3.05
2019-01-02T14:09:28.375Z,3.04
2019-01-02T14:12:01.069Z,3.00
2019-01-02T14:14:33.625Z,3.02
2019-01-02T14:17:08.984Z,3.00
2019-01-02T14:19:41.531Z,3.00
2019-01-02T14:22:14.288Z,3.00
2019-01-02T14:24:46.947Z,3.21
2019-01-02T14:27:19.561Z,3.31
2019-01-02T14:29:52.143Z,3.16
2019-01-02T14:32:24.772Z,2.84
2019-01-02T14:34:57.376Z,2.58
2019-01-02T14:37:30.068Z,2.46
2019-01-02T14:40:02.623Z,2.40
2019-01-02T14:42:35.175Z,2.38
2019-01-02T14:45:08.488Z,2.38
2019-01-02T14:47:41.063Z,2.35
2019-01-02T14:50:14.470Z,2.28
2019-01-02T14:52:47.056Z,2.30
2019-01-02T14:55:19.737Z,2.28
2019-01-02T14:57:52.353Z,2.16
2019-01-02T15:00:24.986Z,2.08
2019-01-02T15:02:58.309Z,2.05
2019-01-02T15:05:30.867Z,2.01
2019-01-02T15:08:03.575Z,2.03
2019-01-02T15:10:36.198Z,2.00
2019-01-02T15:13:08.939Z,1.97
2019-01-02T15:15:41.666Z,1.95
2019-01-02T15:18:14.491Z,1.88
2019-01-02T15:20:47.140Z,1.85
2019-01-02T15:23:19.753Z,1.78
2019-01-02T15:25:52.433Z,1.79
2019-01-02T15:28:25.078Z,1.80
2019-01-02T15:30:57.637Z,1.80
2019-01-02T15:33:30.217Z,1.79
2019-01-02T15:36:02.843Z,1.82
2019-01-02T15:38:35.433Z,1.79
2019-01-02T15:41:08.023Z,1.78
2019-01-02T15:43:40.651Z,1.78
2019-01-02T15:46:13.385Z,1.75
2019-01-02T15:48:46.008Z,1.76
2019-01-02T15:51:18.584Z,1.73
2019-01-02T15:53:51.153Z,1.67
2019-01-02T15:56:23.774Z,1.65
2019-01-02T15:58:56.428Z,1.71
2019-01-02T16:01:29.074Z,1.70
2019-01-02T16:04:02.751Z,1.70
2019-01-02T16:06:35.445Z,1.68
2019-01-02T16:09:09.558Z,1.59
2019-01-02T16:11:42.108Z,1.59
2019-01-02T16:14:17.038Z,1.57
2019-01-02T16:16:49.102Z,1.59
2019-01-02T16:19:21.684Z,1.56
2019-01-02T16:21:54.348Z,1.52
2019-01-02T16:24:26.996Z,1.49
2019-01-02T16:26:59.802Z,1.35
2019-01-02T16:29:32.391Z,1.35
2019-01-02T16:32:05.242Z,1.39
2019-01-02T16:34:37.874Z,1.37
2019-01-02T16:37:10.500Z,1.24
2019-01-02T16:39:43.075Z,1.22
2019-01-02T16:42:15.818Z,1.30
2019-01-02T16:44:47.679Z,1.35
2019-01-02T16:47:20.366Z,1.42
2019-01-02T16:49:53.096Z,1.43
2019-01-02T16:52:25.867Z,1.44
2019-01-02T16:54:58.585Z,1.49
2019-01-02T16:57:31.165Z,1.45
2019-01-02T17:00:03.868Z,1.43
2019-01-02T17:02:36.517Z,1.44
2019-01-02T17:05:09.172Z,1.39
2019-01-02T17:07:41.784Z,1.39
2019-01-02T17:10:15.368Z,1.42
2019-01-02T17:12:47.937Z,1.35
2019-01-02T17:15:20.799Z,1.30
2019-01-02T17:17:53.428Z,1.34
2019-01-02T17:20:26.053Z,1.21
2019-01-02T17:22:58.603Z,1.21
2019-01-02T17:25:31.175Z,1.29
2019-01-02T17:28:03.722Z,1.21
2019-01-02T17:30:36.425Z,1.24
2019-01-02T17:33:09.091Z,1.27
2019-01-02T17:35:41.651Z,1.20
2019-01-02T17:38:14.455Z,1.18
2019-01-02T17:40:48.289Z,1.12
2019-01-02T17:43:20.922Z,1.09
2019-01-02T17:45:53.526Z,1.11
2019-01-02T17:48:26.097Z,1.12
2019-01-02T17:50:58.912Z,1.14
2019-01-02T17:53:31.561Z,1.23
2019-01-02T17:56:04.178Z,1.27
2019-01-02T17:58:36.912Z,1.29
2019-01-02T18:01:09.533Z,1.24
2019-01-02T18:03:42.286Z,1.16
2019-01-02T18:06:15.139Z,1.26
2019-01-02T18:08:47.780Z,1.26
2019-01-02T18:11:20.407Z,1.32
2019-01-02T18:13:53.024Z,1.23
2019-01-02T18:16:25.781Z,1.20
2019-01-02T18:18:58.402Z,1.14
2019-01-02T18:21:31.198Z,1.15
2019-01-02T18:24:03.814Z,1.12
2019-01-02T18:26:36.434Z,1.09
2019-01-02T18:29:09.036Z,1.03
2019-01-02T18:31:41.679Z,1.04
2019-01-02T18:34:14.247Z,1.05
2019-01-02T18:36:46.880Z,1.03
2019-01-02T18:39:19.484Z,1.05
2019-01-02T18:41:52.151Z,1.03
2019-01-02T18:44:24.842Z,0.97
2019-01-02T18:46:57.477Z,1.08
2019-01-02T18:49:30.095Z,0.94
2019-01-02T18:52:02.795Z,0.93
2019-01-02T18:54:35.424Z,0.94
2019-01-02T18:57:08.025Z,0.85
2019-01-02T18:59:40.745Z,0.84
2019-01-02T19:02:13.491Z,0.79
2019-01-02T19:04:46.140Z,0.77
2019-01-02T19:07:18.894Z,0.81
2019-01-02T19:09:51.512Z,0.79
2019-01-02T19:12:24.053Z,0.81
2019-01-02T19:14:56.728Z,0.78
2019-01-02T19:17:30.405Z,0.80
2019-01-02T19:20:03.067Z,0.92
2019-01-02T19:22:35.695Z,0.81
2019-01-02T19:25:09.013Z,0.83
2019-01-02T19:27:41.585Z,0.91
2019-01-02T19:30:14.776Z,0.87
2019-01-02T19:32:49.668Z,0.92
2019-01-02T19:35:22.358Z,1.06
2019-01-02T19:37:54.893Z,1.16
2019-01-02T19:40:27.507Z,1.07
2019-01-02T19:43:00.008Z,1.09
2019-01-02T19:45:32.656Z,1.08
2019-01-02T19:48:05.275Z,1.06
2019-01-02T19:50:38.994Z,1.02
2019-01-02T19:53:11.603Z,1.00
2019-01-02T19:55:44.311Z,0.92
2019-01-02T19:58:16.887Z,0.97
2019-01-02T20:00:49.585Z,0.95
2019-01-02T20:03:22.267Z,0.89
2019-01-02T20:05:54.898Z,0.93
2019-01-02T20:08:27.517Z,0.93
2019-01-02T20:11:00.175Z,0.78
2019-01-02T20:13:32.792Z,0.73
2019-01-02T20:16:05.355Z,0.73
2019-01-02T20:18:38.002Z,0.71
2019-01-02T20:21:10.675Z,0.89
2019-01-02T20:23:43.291Z,0.89
2019-01-02T20:26:15.899Z,0.85
2019-01-02T20:28:49.505Z,0.82
2019-01-02T20:31:22.190Z,0.85
2019-01-02T20:33:54.803Z,0.88
2019-01-02T20:36:27.942Z,0.90
2019-01-02T20:39:00.608Z,0.97
2019-01-02T20:41:33.156Z,1.08
2019-01-02T20:44:05.764Z,1.05
2019-01-02T20:46:38.388Z,1.08
2019-01-02T20:49:10.974Z,1.06
2019-01-02T20:51:46.731Z,1.08
2019-01-02T20:54:20.360Z,1.01
2019-01-02T20:56:52.979Z,0.97
2019-01-02T20:59:25.586Z,1.02
2019-01-02T21:01:58.257Z,1.05
2019-01-02T21:04:30.846Z,1.08
2019-01-02T21:07:07.842Z,0.99
2019-01-02T21:09:41.615Z,0.99
2019-01-02T21:12:14.280Z,1.06
2019-01-02T21:14:46.939Z,0.86
2019-01-02T21:17:19.456Z,0.94
2019-01-02T21:19:52.224Z,0.73
2019-01-02T21:22:24.993Z,0.81
2019-01-02T21:24:57.638Z,0.79
2019-01-02T21:27:30.238Z,0.68
2019-01-02T21:30:02.924Z,0.56
2019-01-02T21:32:35.490Z,0.59
2019-01-02T21:35:08.551Z,0.61
2019-01-02T21:37:41.173Z,0.45
2019-01-02T21:40:14.048Z,0.47
2019-01-02T21:42:46.612Z,0.41
2019-01-02T21:45:19.265Z,0.42
2019-01-02T21:47:51.898Z,0.37
2019-01-02T21:50:24.652Z,0.23
2019-01-02T21:52:57.231Z,0.20
2019-01-02T21:55:29.851Z,-0.02
2019-01-02T21:58:02.487Z,-0.08
2019-01-02T22:00:35.096Z,-0.15
2019-01-02T22:03:07.811Z,-0.06
2019-01-02T22:05:40.439Z,0.03
2019-01-02T22:08:13.241Z,0.06
2019-01-02T22:10:45.851Z,0.12
2019-01-02T22:13:18.472Z,0.12
2019-01-02T22:15:51.097Z,0.18
2019-01-02T22:18:23.894Z,0.26
2019-01-02T22:20:56.533Z,0.27
2019-01-02T22:23:29.105Z,0.33
2019-01-02T22:26:01.637Z,0.21
2019-01-02T22:28:34.222Z,0.18
2019-01-02T22:31:06.896Z,0.12
2019-01-02T22:33:39.598Z,0.24
2019-01-02T22:36:12.298Z,0.28
2019-01-02T22:38:44.934Z,0.26
2019-01-02T22:41:17.502Z,0.16
2019-01-02T22:43:50.147Z,0.26
2019-01-02T22:46:22.707Z,0.28
2019-01-02T22:48:55.403Z,0.22
2019-01-02T22:51:28.017Z,0.25
2019-01-02T22:54:00.652Z,0.30
2019-01-02T22:56:33.201Z,0.42
2019-01-02T22:59:05.859Z,0.40
2019-01-02T23:01:46.427Z,0.36
2019-01-02T23:04:37.890Z,0.28
2019-01-02T23:07:35.576Z,0.28
2019-01-02T23:10:25.977Z,0.32
2019-01-02T23:13:09.628Z,0.21
2019-01-02T23:16:01.031Z,0.32
2019-01-02T23:19:10.725Z,0.24
2019-01-02T23:22:02.307Z,0.12
2019-01-02T23:25:01.875Z,0.15
2019-01-02T23:27:51.142Z,0.33
2019-01-02T23:30:51.510Z,0.19
2019-01-02T23:33:40.680Z,0.27
2019-01-02T23:36:32.287Z,0.30
2019-01-02T23:39:31.340Z,0.36
2019-01-02T23:42:21.248Z,0.18
2019-01-02T23:45:11.348Z,0.23
2019-01-02T23:48:14.653Z,0.21
2019-01-02T23:51:10.322Z,0.14
2019-01-02T23:53:55.559Z,0.20
2019-01-02T23:56:56.007Z,0.12
